KJAC

Jackson Hole Airport

Jackson, Wyoming, USA
KJAC 210520Z 2106/2206 01008KT P6SM SKC FM211600 21008KT P6SM SKC FM220400 01007KT P6SM FEW070 AMD LTD TO CLD VIS AND WIND
Issued Valid From Valid To
Apr-21 @ 05:20 UTC
(4 hours ago)
Apr-21 @ 06:00 UTC
(4 hours ago)
Apr-22 @ 06:00 UTC
(in 20 hours)
Apr-21 @ 06:00 to Apr-21 @ 16:00
KJAC 210520Z 2106/2206 01008KT P6SM SKC
Wind Visibility Clouds
10° at 8 knots Greater than 6 miles
  • Clear skies
From Apr-21 @ 16:00 to Apr-22 @ 04:00
FM211600 21008KT P6SM SKC
Wind Visibility Clouds
210° at 8 knots Greater than 6 miles
  • Clear skies
From Apr-22 @ 04:00 to Apr-22 @ 06:00
FM220400 01007KT P6SM FEW070 AMD LTD TO CLD VIS AND WIND
Wind Visibility Clouds
10° at 7 knots Greater than 6 miles
  • Few at 7,000' AGL
KJAC 210520Z 2106/2206 01008KT P6SM SKC FM211600 21008KT P6SM SKC FM220400 01007KT P6SM FEW070 AMD LTD TO CLD VIS AND WIND
Issued Apr-21 @ 05:20 UTC
(4 hours ago)
Valid From Apr-21 @ 06:00 UTC
(4 hours ago)
Valid To Apr-22 @ 06:00 UTC
(in 20 hours)
Apr-21 @ 06:00 - Apr-21 @ 16:00
Wind Visibility
10° at 8 knots Greater than 6 miles
Clouds
  • Clear skies
From Apr-21 @ 16:00 - Apr-22 @ 04:00
Wind Visibility
210° at 8 knots Greater than 6 miles
Clouds
  • Clear skies
From Apr-22 @ 04:00 - Apr-22 @ 06:00
Wind Visibility
10° at 7 knots Greater than 6 miles
Clouds
  • Few at 7,000' AGL